Time;durP1;ratioP1;P1;durP2;ratioP2;P2;SDS_P1;SDS_P2;PMS_P1;PMS_P2;Temp;Humidity;BMP_temperature;BMP_pressure;BME280_temperature;BME280_humidity;BME280_pressure;Samples;Min_cycle;Max_cycle;Signal;HPM_P1;HPM_P2
2023/06/12 00:01:20;;;;;;;8.75;8.07;;;;;;;19.00;85.97;94465.53;4946968;28;20213;-68
2023/06/12 00:03:47;;;;;;;15.77;9.13;;;;;;;19.08;86.03;94489.88;4942648;28;20209;-72
2023/06/12 00:06:16;;;;;;;9.38;8.15;;;;;;;18.92;86.32;94488.47;4945163;28;20212;-66
2023/06/12 00:08:45;;;;;;;17.33;13.55;;;;;;;18.92;86.84;94480.75;4951461;28;20212;-64
2023/06/12 00:11:12;;;;;;;26.67;13.20;;;;;;;18.90;86.84;94492.91;4947471;28;20201;-66
2023/06/12 00:13:39;;;;;;;15.20;11.95;;;;;;;18.99;86.64;94494.00;4945245;28;20618;-68
2023/06/12 00:16:06;;;;;;;15.82;12.85;;;;;;;19.22;85.89;94497.41;4948839;28;20319;-67
2023/06/12 00:18:33;;;;;;;16.15;11.15;;;;;;;19.30;85.03;94497.63;4954908;28;20224;-67
2023/06/12 00:21:01;;;;;;;13.60;9.88;;;;;;;19.30;84.51;94487.34;4953018;28;20205;-66
2023/06/12 00:23:28;;;;;;;9.25;8.32;;;;;;;19.12;85.28;94489.53;4956658;28;20220;-70
2023/06/12 00:25:56;;;;;;;10.73;8.07;;;;;;;18.98;85.87;94489.78;4955120;28;20209;-74
2023/06/12 00:28:22;;;;;;;8.90;8.00;;;;;;;18.94;86.25;94489.19;4955456;28;20213;-68
2023/06/12 00:30:49;;;;;;;8.82;7.95;;;;;;;18.86;86.40;94481.19;4953676;28;20316;-68
2023/06/12 00:33:16;;;;;;;9.55;8.07;;;;;;;18.83;86.34;94483.19;4954916;28;20209;-68
2023/06/12 00:35:43;;;;;;;8.63;6.85;;;;;;;18.66;86.93;94471.59;4954010;28;20232;-73
2023/06/12 00:38:10;;;;;;;10.35;7.63;;;;;;;18.59;87.30;94480.66;4953057;28;20358;-71
2023/06/12 00:40:37;;;;;;;9.30;8.07;;;;;;;18.61;87.35;94481.38;4955353;28;20685;-69
2023/06/12 00:43:06;;;;;;;16.38;11.80;;;;;;;18.71;87.30;94484.94;4953300;28;20409;-67
2023/06/12 00:45:33;;;;;;;13.75;10.68;;;;;;;18.81;86.04;94479.91;4948330;28;20212;-64
2023/06/12 00:48:00;;;;;;;11.23;9.68;;;;;;;18.80;85.50;94488.59;4947878;28;20319;-71
2023/06/12 00:50:27;;;;;;;7.97;7.28;;;;;;;18.81;84.41;94485.88;4952282;28;20324;-67
2023/06/12 00:52:56;;;;;;;7.22;6.55;;;;;;;18.74;83.99;94471.84;4952066;28;20247;-67
2023/06/12 00:55:23;;;;;;;9.38;7.20;;;;;;;18.76;84.68;94494.91;4951634;28;20276;-67
2023/06/12 00:57:51;;;;;;;14.93;7.05;;;;;;;18.76;84.40;94492.31;4952729;28;20239;-66
2023/06/12 01:00:20;;;;;;;7.93;7.15;;;;;;;18.89;83.77;94488.69;4952957;28;20817;-70
2023/06/12 01:02:50;;;;;;;6.90;6.25;;;;;;;18.83;84.28;94484.00;4953535;28;21772;-65
2023/06/12 01:05:20;;;;;;;9.05;6.03;;;;;;;18.85;84.10;94487.28;4951521;28;20209;-65
2023/06/12 01:07:53;;;;;;;8.98;6.22;;;;;;;18.86;84.01;94486.34;4951847;28;20233;-65
2023/06/12 01:10:28;;;;;;;9.50;6.03;;;;;;;18.81;84.33;94473.00;4952989;28;20303;-66
2023/06/12 01:12:55;;;;;;;7.15;6.43;;;;;;;18.98;83.93;94477.72;4951736;28;20213;-68
2023/06/12 01:15:23;;;;;;;7.72;6.47;;;;;;;19.08;82.75;94482.16;4951350;28;20324;-69
2023/06/12 01:17:50;;;;;;;10.77;6.53;;;;;;;18.98;82.91;94482.03;4951057;28;20295;-66
2023/06/12 01:20:18;;;;;;;8.13;6.03;;;;;;;18.84;83.76;94484.81;4951728;28;20691;-66
2023/06/12 01:22:57;;;;;;;7.38;6.18;;;;;;;18.95;83.40;94477.13;4951399;28;20212;-69
2023/06/12 01:26:03;;;;;;;10.85;6.20;;;;;;;19.03;83.00;94475.63;4950263;28;20719;-65
2023/06/12 01:28:58;;;;;;;10.85;6.25;;;;;;;18.96;83.12;94469.28;4954918;28;20328;-69
2023/06/12 01:31:31;;;;;;;7.43;6.68;;;;;;;19.01;83.15;94474.91;4947402;28;20212;-69
2023/06/12 01:34:07;;;;;;;6.53;5.90;;;;;;;18.96;83.42;94468.47;4950418;28;20899;-70
2023/06/12 01:36:38;;;;;;;6.80;6.22;;;;;;;18.93;83.40;94469.50;4952238;28;20248;-65
2023/06/12 01:39:07;;;;;;;10.52;6.38;;;;;;;18.93;83.34;94472.09;4952852;28;20381;-63
2023/06/12 01:41:35;;;;;;;8.27;6.50;;;;;;;18.87;83.44;94480.25;4951382;28;22782;-68
2023/06/12 01:44:08;;;;;;;8.30;6.40;;;;;;;18.83;83.89;94473.69;4954737;28;20619;-66
2023/06/12 01:46:35;;;;;;;6.78;6.38;;;;;;;18.87;83.16;94477.69;4954261;28;20233;-67
2023/06/12 01:49:04;;;;;;;7.25;6.63;;;;;;;18.89;83.60;94480.97;4953230;28;20636;-67
2023/06/12 01:51:30;;;;;;;6.68;6.07;;;;;;;18.95;83.26;94479.69;4949943;28;20252;-67
2023/06/12 01:53:57;;;;;;;6.75;6.15;;;;;;;18.90;83.81;94489.53;4955609;28;20236;-67
2023/06/12 01:56:25;;;;;;;9.43;5.95;;;;;;;18.94;83.73;94489.19;4953291;28;20228;-68
2023/06/12 01:58:52;;;;;;;6.68;6.07;;;;;;;18.96;83.58;94484.75;4952777;28;20652;-70
2023/06/12 02:01:19;;;;;;;7.20;5.85;;;;;;;19.02;83.63;94484.28;4951647;28;20305;-65
2023/06/12 02:03:46;;;;;;;6.63;6.10;;;;;;;19.04;83.54;94486.75;4952001;28;20300;-67
2023/06/12 02:06:15;;;;;;;8.18;6.35;;;;;;;19.03;83.62;94480.78;4951693;28;20216;-67
2023/06/12 02:08:42;;;;;;;7.07;6.32;;;;;;;19.03;83.62;94479.94;4951718;28;20216;-68
2023/06/12 02:11:09;;;;;;;7.85;6.70;;;;;;;19.09;83.35;94494.09;4951781;28;20233;-67
2023/06/12 02:13:35;;;;;;;7.78;7.07;;;;;;;19.10;83.34;94490.59;4953961;28;20212;-65
2023/06/12 02:16:03;;;;;;;7.35;6.63;;;;;;;19.16;83.12;94490.94;4953490;28;20295;-66
2023/06/12 02:18:31;;;;;;;8.30;7.60;;;;;;;19.23;82.98;94484.41;4957248;28;20216;-65
2023/06/12 02:20:58;;;;;;;12.07;7.57;;;;;;;19.23;82.51;94486.97;4954746;28;20209;-65
2023/06/12 02:23:26;;;;;;;8.60;7.65;;;;;;;19.21;82.45;94477.72;4955415;28;20224;-67
2023/06/12 02:25:53;;;;;;;16.42;7.63;;;;;;;19.27;82.42;94492.72;4953773;28;20305;-70
2023/06/12 02:28:19;;;;;;;8.98;6.97;;;;;;;19.29;82.18;94493.41;4953570;28;20299;-67
2023/06/12 02:30:46;;;;;;;14.32;8.55;;;;;;;19.41;81.38;94491.63;4951902;28;20316;-67
2023/06/12 02:33:13;;;;;;;7.03;6.43;;;;;;;19.38;81.43;94495.28;4950296;28;21508;-67
2023/06/12 02:35:40;;;;;;;11.13;6.38;;;;;;;19.40;81.10;94488.25;4952102;28;20227;-65
2023/06/12 02:38:06;;;;;;;8.52;7.28;;;;;;;19.46;81.09;94505.00;4955291;28;20644;-70
2023/06/12 02:40:34;;;;;;;7.30;6.60;;;;;;;19.33;81.66;94500.78;4950087;28;20225;-67
2023/06/12 02:43:01;;;;;;;7.78;7.07;;;;;;;19.25;82.19;94497.16;4953766;28;20317;-66
2023/06/12 02:45:28;;;;;;;7.88;7.03;;;;;;;19.13;82.70;94504.06;4955123;28;20201;-69
2023/06/12 02:47:54;;;;;;;9.77;6.75;;;;;;;19.11;82.95;94505.09;4953020;28;20304;-68
2023/06/12 02:50:21;;;;;;;7.97;7.20;;;;;;;19.10;83.10;94506.03;4952238;28;20296;-68
2023/06/12 02:52:48;;;;;;;8.45;7.57;;;;;;;19.17;82.88;94512.38;4950582;28;20209;-67
2023/06/12 02:55:15;;;;;;;9.65;7.85;;;;;;;19.13;83.04;94519.50;4951971;28;20315;-66
2023/06/12 02:57:43;;;;;;;8.85;7.18;;;;;;;19.12;82.88;94509.31;4952958;28;20315;-67
2023/06/12 03:00:12;;;;;;;10.38;7.45;;;;;;;19.13;82.70;94511.78;4949812;28;20214;-68
2023/06/12 03:02:42;;;;;;;7.85;6.72;;;;;;;19.21;82.63;94517.19;4950829;28;20214;-70
2023/06/12 03:05:14;;;;;;;7.82;6.60;;;;;;;19.21;82.33;94521.50;4952267;28;20212;-69
2023/06/12 03:07:41;;;;;;;8.82;6.28;;;;;;;19.22;82.61;94518.00;4948790;28;20860;-68
2023/06/12 03:10:08;;;;;;;7.60;6.90;;;;;;;19.18;82.41;94511.44;4947387;28;20291;-65
2023/06/12 03:12:35;;;;;;;7.15;6.45;;;;;;;19.26;81.81;94527.13;4951812;28;20204;-68
2023/06/12 03:15:04;;;;;;;7.85;6.97;;;;;;;19.29;81.85;94521.75;4950491;28;20216;-66
2023/06/12 03:17:31;;;;;;;9.95;7.13;;;;;;;19.43;81.48;94531.00;4952058;28;20201;-67
2023/06/12 03:19:58;;;;;;;10.55;7.60;;;;;;;19.40;81.69;94534.63;4950430;28;20625;-65
2023/06/12 03:22:25;;;;;;;13.38;9.50;;;;;;;19.47;81.41;94532.41;4951735;28;20211;-66
2023/06/12 03:24:53;;;;;;;10.43;9.40;;;;;;;19.60;80.72;94531.38;4952696;28;20207;-66
2023/06/12 03:27:20;;;;;;;9.85;8.90;;;;;;;19.68;80.16;94534.19;4951247;28;20205;-66
2023/06/12 03:29:47;;;;;;;16.60;8.57;;;;;;;19.63;80.25;94536.28;4949655;28;20219;-68
2023/06/12 03:32:15;;;;;;;9.27;8.32;;;;;;;19.62;80.42;94537.22;4951576;28;20676;-70
2023/06/12 03:34:42;;;;;;;9.63;8.27;;;;;;;19.66;80.09;94530.06;4952825;28;20213;-65
2023/06/12 03:37:09;;;;;;;23.30;9.27;;;;;;;19.73;79.83;94531.25;4950714;28;20320;-71
2023/06/12 03:39:35;;;;;;;17.60;8.25;;;;;;;19.77;79.33;94521.53;4952958;28;20216;-68
2023/06/12 03:42:02;;;;;;;11.93;6.85;;;;;;;19.79;79.24;94529.97;4952356;28;20240;-67
2023/06/12 03:44:30;;;;;;;13.57;7.40;;;;;;;19.85;78.93;94526.88;4950705;28;20767;-68
2023/06/12 03:46:57;;;;;;;8.07;7.38;;;;;;;19.92;78.38;94525.47;4952959;28;20802;-70
2023/06/12 03:49:25;;;;;;;14.57;10.38;;;;;;;20.03;77.83;94523.69;4954403;28;20212;-69
2023/06/12 03:51:51;;;;;;;50.80;32.28;;;;;;;20.17;77.26;94517.44;4955747;28;20315;-67
2023/06/12 03:54:19;;;;;;;33.30;20.70;;;;;;;20.28;76.84;94514.81;4955018;28;20291;-68
2023/06/12 03:56:45;;;;;;;24.27;16.30;;;;;;;20.35;75.96;94507.38;4957653;28;20229;-71
2023/06/12 03:59:13;;;;;;;19.40;11.80;;;;;;;20.50;75.37;94520.84;4955546;28;20303;-71
2023/06/12 04:01:42;;;;;;;13.15;9.95;;;;;;;20.59;74.97;94515.75;4955465;28;20240;-67
2023/06/12 04:04:09;;;;;;;11.93;9.60;;;;;;;20.66;74.56;94522.06;4953663;28;20213;-65
2023/06/12 04:06:40;;;;;;;9.35;8.55;;;;;;;20.81;74.53;94524.31;4954605;28;20213;-65
2023/06/12 04:09:07;;;;;;;10.65;8.52;;;;;;;20.91;73.74;94526.03;4955760;28;20207;-67
2023/06/12 04:11:35;;;;;;;7.40;6.65;;;;;;;21.05;73.13;94527.47;4954735;28;20208;-71
2023/06/12 04:14:02;;;;;;;14.45;12.93;;;;;;;21.20;72.13;94521.06;4954579;28;20212;-71
2023/06/12 04:16:29;;;;;;;18.27;12.77;;;;;;;21.39;71.34;94515.16;4954992;28;20367;-69
2023/06/12 04:18:56;;;;;;;9.75;8.95;;;;;;;21.61;70.71;94514.97;4955303;28;20300;-68
2023/06/12 04:21:22;;;;;;;10.73;8.32;;;;;;;21.83;70.05;94513.94;4953874;28;20223;-65
2023/06/12 04:23:51;;;;;;;12.18;7.47;;;;;;;22.15;68.26;94513.75;4953755;28;20567;-67
2023/06/12 04:26:20;;;;;;;9.32;5.75;;;;;;;22.31;67.25;94503.69;4954788;28;20616;-68
2023/06/12 04:28:48;;;;;;;10.93;6.30;;;;;;;22.66;66.40;94518.69;4954263;28;20263;-67
2023/06/12 04:31:16;;;;;;;19.55;15.35;;;;;;;22.93;65.13;94515.41;4954878;28;20765;-68
2023/06/12 04:33:43;;;;;;;19.50;14.18;;;;;;;23.13;64.57;94516.16;4952346;28;20301;-69
2023/06/12 04:36:13;;;;;;;11.80;9.05;;;;;;;23.23;63.93;94511.78;4956190;28;20328;-70
2023/06/12 04:38:40;;;;;;;10.38;7.28;;;;;;;23.37;63.59;94518.28;4956788;28;20362;-67
2023/06/12 04:41:09;;;;;;;6.75;5.85;;;;;;;24.07;62.41;94514.28;4956320;28;20291;-68
2023/06/12 04:43:36;;;;;;;8.82;6.10;;;;;;;25.60;57.81;94500.88;4954717;28;20213;-66
2023/06/12 04:46:05;;;;;;;7.38;6.53;;;;;;;27.27;53.23;94500.66;4955249;28;20215;-73
2023/06/12 04:48:32;;;;;;;5.85;5.07;;;;;;;28.35;49.88;94501.72;4952624;28;20236;-71
2023/06/12 04:50:58;;;;;;;6.68;6.03;;;;;;;28.35;49.17;94500.91;4955414;28;20732;-69
2023/06/12 04:53:27;;;;;;;8.65;5.78;;;;;;;27.92;49.75;94510.91;4955031;28;20256;-69
2023/06/12 04:55:56;;;;;;;6.20;5.60;;;;;;;27.55;49.92;94508.91;4954059;28;20225;-69
2023/06/12 04:58:24;;;;;;;8.52;6.43;;;;;;;27.02;51.34;94502.47;4952854;28;20205;-64
2023/06/12 05:00:55;;;;;;;11.40;6.32;;;;;;;26.58;52.64;94509.00;4953959;28;20209;-67
2023/06/12 05:03:21;;;;;;;8.38;5.65;;;;;;;26.21;54.18;94512.00;4953210;28;20294;-68
2023/06/12 05:05:49;;;;;;;15.60;6.63;;;;;;;26.07;54.28;94509.03;4953707;28;20318;-67
2023/06/12 05:08:15;;;;;;;5.85;5.13;;;;;;;25.91;54.94;94511.59;4953525;28;20263;-67
2023/06/12 05:10:42;;;;;;;12.60;5.68;;;;;;;25.94;54.90;94510.47;4953390;28;20209;-68
2023/06/12 05:13:09;;;;;;;7.72;5.90;;;;;;;25.87;54.76;94515.50;4952191;28;20315;-66
2023/06/12 05:15:37;;;;;;;6.22;5.63;;;;;;;25.74;55.26;94510.72;4951467;28;20713;-67
2023/06/12 05:18:04;;;;;;;8.60;6.10;;;;;;;25.68;55.22;94515.75;4952021;28;20700;-70
2023/06/12 05:20:31;;;;;;;10.80;5.65;;;;;;;25.52;55.39;94515.63;4954140;28;20216;-66
2023/06/12 05:22:58;;;;;;;9.70;5.28;;;;;;;25.48;55.25;94514.31;4949549;28;20343;-67
2023/06/12 05:25:25;;;;;;;6.70;6.03;;;;;;;25.34;55.54;94516.50;4952978;28;20303;-67
2023/06/12 05:27:51;;;;;;;5.70;5.30;;;;;;;25.32;55.91;94520.22;4951860;28;20296;-66
2023/06/12 05:30:18;;;;;;;5.93;5.00;;;;;;;25.01;56.81;94518.09;4953328;28;20200;-64
2023/06/12 05:32:46;;;;;;;10.50;5.88;;;;;;;24.82;56.75;94520.84;4950515;28;20438;-70
2023/06/12 05:35:13;;;;;;;6.10;5.47;;;;;;;24.83;56.13;94522.47;4953689;28;20702;-67
2023/06/12 05:37:40;;;;;;;7.07;5.25;;;;;;;24.53;57.54;94528.06;4950236;28;20596;-67
2023/06/12 05:40:09;;;;;;;6.10;5.60;;;;;;;24.31;58.57;94534.50;4953197;28;20757;-71
2023/06/12 05:42:36;;;;;;;7.82;5.28;;;;;;;24.26;58.70;94534.94;4953405;28;20205;-66
2023/06/12 05:45:03;;;;;;;5.75;4.93;;;;;;;24.40;58.31;94539.66;4951594;28;20404;-68
2023/06/12 05:47:30;;;;;;;5.78;5.00;;;;;;;24.57;58.30;94537.19;4951261;28;20209;-68
2023/06/12 05:49:58;;;;;;;6.70;4.68;;;;;;;24.85;57.05;94533.53;4954106;28;20209;-69
2023/06/12 05:52:24;;;;;;;10.13;5.07;;;;;;;25.39;55.85;94518.66;4951445;28;20374;-66
2023/06/12 05:54:51;;;;;;;8.75;6.05;;;;;;;25.87;54.12;94520.69;4951515;28;20232;-66
2023/06/12 05:57:18;;;;;;;10.77;6.20;;;;;;;26.62;52.64;94525.94;4951614;28;20287;-67
2023/06/12 05:59:47;;;;;;;5.70;4.95;;;;;;;26.88;51.31;94516.16;4952079;28;20295;-68
2023/06/12 06:02:14;;;;;;;12.52;5.80;;;;;;;26.81;51.20;94525.59;4951889;28;20666;-68
2023/06/12 06:04:41;;;;;;;7.70;5.60;;;;;;;26.47;52.10;94528.38;4952124;28;20209;-68
2023/06/12 06:07:11;;;;;;;8.07;6.00;;;;;;;26.19;53.23;94529.59;4951533;28;20209;-64
2023/06/12 06:09:38;;;;;;;8.27;6.28;;;;;;;26.08;53.65;94528.91;4953916;28;20213;-69
2023/06/12 06:12:05;;;;;;;7.22;5.22;;;;;;;25.99;53.95;94523.81;4951712;28;20466;-65
2023/06/12 06:14:32;;;;;;;10.07;6.20;;;;;;;25.62;54.68;94524.13;4953207;28;20217;-68
2023/06/12 06:16:58;;;;;;;11.88;6.50;;;;;;;25.20;55.10;94531.88;4956068;28;20335;-68
2023/06/12 06:19:25;;;;;;;10.52;7.10;;;;;;;24.36;56.79;94533.13;4953758;28;20204;-69
2023/06/12 06:21:52;;;;;;;8.23;7.30;;;;;;;23.92;58.09;94534.72;4953791;28;20209;-65
2023/06/12 06:24:20;;;;;;;11.00;7.18;;;;;;;23.70;59.41;94533.34;4954087;28;20243;-70
2023/06/12 06:26:47;;;;;;;17.67;9.20;;;;;;;23.60;59.84;94534.34;4954389;28;20223;-67
2023/06/12 06:29:14;;;;;;;9.02;7.60;;;;;;;23.32;60.83;94536.84;4952549;28;20304;-67
2023/06/12 06:31:40;;;;;;;9.07;7.93;;;;;;;23.48;61.29;94533.69;4953142;28;20731;-67
2023/06/12 06:34:07;;;;;;;12.07;6.35;;;;;;;24.02;57.70;94530.28;4949740;28;20295;-65
2023/06/12 06:36:34;;;;;;;12.45;6.30;;;;;;;24.55;56.52;94528.72;4953434;28;20247;-68
2023/06/12 06:39:00;;;;;;;10.75;5.97;;;;;;;25.08;55.58;94529.50;4953171;28;20300;-67
2023/06/12 06:41:28;;;;;;;13.75;9.13;;;;;;;25.73;53.31;94526.50;4952561;28;20712;-69
2023/06/12 06:43:55;;;;;;;10.45;7.45;;;;;;;27.47;50.19;94527.19;4952189;28;20224;-67
2023/06/12 06:46:22;;;;;;;10.50;7.22;;;;;;;29.52;44.53;94523.19;4952812;28;20696;-70
2023/06/12 06:48:48;;;;;;;7.38;6.70;;;;;;;29.88;43.81;94531.97;4952360;28;20220;-67
2023/06/12 06:51:15;;;;;;;13.15;7.40;;;;;;;29.40;44.09;94525.44;4952318;28;20810;-69
2023/06/12 06:53:41;;;;;;;9.52;8.80;;;;;;;28.44;45.69;94532.06;4955801;28;20213;-71
2023/06/12 06:56:08;;;;;;;8.70;7.97;;;;;;;28.36;46.40;94531.28;4950133;28;20288;-68
2023/06/12 06:58:36;;;;;;;11.15;7.38;;;;;;;30.29;42.82;94523.59;4952734;28;20210;-69
2023/06/12 07:01:03;;;;;;;9.77;7.25;;;;;;;35.12;34.13;94512.09;4952126;28;20718;-66
2023/06/12 07:03:30;;;;;;;8.40;6.93;;;;;;;39.04;27.53;94510.16;4951634;28;20233;-68
2023/06/12 07:05:56;;;;;;;7.97;7.22;;;;;;;40.34;25.92;94503.53;4952326;28;20706;-68
2023/06/12 07:08:23;;;;;;;11.32;9.10;;;;;;;39.18;26.15;94509.84;4953002;28;20216;-71
2023/06/12 07:10:50;;;;;;;8.13;7.50;;;;;;;35.93;29.91;94513.78;4950107;28;20204;-72
2023/06/12 07:13:16;;;;;;;12.43;8.60;;;;;;;32.84;35.08;94511.56;4949826;28;20682;-70
2023/06/12 07:15:44;;;;;;;13.52;8.38;;;;;;;31.38;38.27;94498.81;4951481;28;20204;-70
2023/06/12 07:18:11;;;;;;;8.60;7.80;;;;;;;30.03;41.14;94505.75;4950907;28;20730;-69
2023/06/12 07:20:38;;;;;;;7.75;6.95;;;;;;;29.61;42.53;94509.84;4950643;28;20248;-65
2023/06/12 07:23:05;;;;;;;8.05;7.38;;;;;;;29.94;41.50;94505.03;4955518;28;21969;-68
2023/06/12 07:25:31;;;;;;;6.90;6.22;;;;;;;29.77;42.30;94499.16;4956804;28;20212;-69
2023/06/12 07:27:58;;;;;;;9.30;6.10;;;;;;;30.01;42.32;94499.88;4956814;28;20208;-70
2023/06/12 07:30:25;;;;;;;11.32;6.43;;;;;;;30.17;41.58;94504.13;4956558;28;20637;-67
2023/06/12 07:32:53;;;;;;;6.80;6.10;;;;;;;30.64;40.63;94508.88;4960101;28;20287;-71
2023/06/12 07:35:20;;;;;;;7.10;5.20;;;;;;;31.07;39.75;94509.66;4956921;28;20296;-70
2023/06/12 07:37:46;;;;;;;8.98;5.50;;;;;;;32.04;37.89;94509.69;4958588;28;20327;-64
2023/06/12 07:40:14;;;;;;;9.95;6.10;;;;;;;32.38;36.98;94507.00;4956191;28;20331;-69
2023/06/12 07:42:42;;;;;;;10.57;5.60;;;;;;;31.30;37.10;94512.06;4956229;28;20208;-71
2023/06/12 07:45:10;;;;;;;5.18;4.78;;;;;;;30.85;38.18;94501.00;4955005;28;20220;-66
2023/06/12 07:47:37;;;;;;;4.88;4.35;;;;;;;30.76;39.68;94509.97;4956175;28;20527;-67
2023/06/12 07:50:06;;;;;;;5.30;4.05;;;;;;;31.64;37.37;94508.66;4956228;28;20315;-71
2023/06/12 07:52:33;;;;;;;5.13;4.65;;;;;;;31.53;36.92;94512.63;4954113;28;20224;-73
2023/06/12 07:55:00;;;;;;;4.60;4.15;;;;;;;31.15;38.61;94508.72;4955563;28;20563;-73
2023/06/12 07:57:28;;;;;;;6.18;4.75;;;;;;;31.06;39.05;94506.22;4956457;28;20319;-71
2023/06/12 07:59:54;;;;;;;7.15;4.50;;;;;;;31.18;37.83;94503.91;4956803;28;20655;-67
2023/06/12 08:02:21;;;;;;;5.43;4.53;;;;;;;31.24;38.14;94502.31;4956265;28;20733;-67
2023/06/12 08:04:48;;;;;;;8.18;4.78;;;;;;;31.31;38.09;94497.94;4954818;28;20211;-69
2023/06/12 08:07:17;;;;;;;9.45;4.68;;;;;;;31.38;37.08;94504.06;4952775;28;20259;-68
2023/06/12 08:09:44;;;;;;;5.55;4.20;;;;;;;32.35;36.21;94506.59;4954295;28;20232;-67
2023/06/12 08:12:11;;;;;;;7.68;5.30;;;;;;;34.30;33.74;94499.78;4952839;28;20303;-62
2023/06/12 08:14:39;;;;;;;6.25;5.70;;;;;;;35.64;31.88;94495.97;4954075;28;20215;-68
2023/06/12 08:17:06;;;;;;;12.35;6.40;;;;;;;36.38;31.57;94503.69;4956259;28;20236;-67
2023/06/12 08:19:34;;;;;;;7.05;5.82;;;;;;;36.31;31.51;94496.88;4955206;28;20265;-69
2023/06/12 08:22:01;;;;;;;7.53;5.78;;;;;;;35.48;31.92;94494.72;4955256;28;20213;-70
2023/06/12 08:24:30;;;;;;;6.82;6.22;;;;;;;34.54;34.21;94497.44;4953916;28;20213;-71
2023/06/12 08:26:58;;;;;;;7.45;6.78;;;;;;;33.52;35.70;94492.91;4954383;28;20275;-70
2023/06/12 08:29:24;;;;;;;10.80;6.28;;;;;;;32.70;37.03;94501.97;4953201;28;20702;-70
2023/06/12 08:31:51;;;;;;;7.68;6.82;;;;;;;31.74;38.59;94509.94;4955159;28;20209;-69
2023/06/12 08:34:18;;;;;;;13.68;6.40;;;;;;;31.02;39.76;94504.16;4951202;28;20213;-67
2023/06/12 08:36:44;;;;;;;7.93;6.25;;;;;;;30.50;41.70;94500.03;4953722;28;20205;-67
2023/06/12 08:39:11;;;;;;;7.75;6.22;;;;;;;30.17;42.36;94504.13;4955574;28;20745;-66
2023/06/12 08:41:53;;;;;;;8.52;6.15;;;;;;;29.70;43.21;94505.31;4952195;28;20332;-66
2023/06/12 08:44:22;;;;;;;8.88;7.70;;;;;;;29.25;44.19;94508.88;4950112;28;20760;-67
2023/06/12 08:46:54;;;;;;;9.75;6.63;;;;;;;28.95;45.11;94511.47;4955867;28;20236;-69
2023/06/12 08:49:21;;;;;;;12.25;7.15;;;;;;;28.78;45.97;94517.75;4950770;28;20219;-73
2023/06/12 08:51:50;;;;;;;6.82;5.88;;;;;;;28.51;46.21;94511.25;4953475;28;20256;-67
2023/06/12 08:54:17;;;;;;;11.27;6.07;;;;;;;28.08;47.19;94515.25;4951488;28;21306;-74
2023/06/12 08:56:47;;;;;;;12.32;6.32;;;;;;;27.75;47.83;94515.38;4950844;28;20660;-71
2023/06/12 08:59:14;;;;;;;8.27;5.70;;;;;;;27.52;48.05;94504.00;4951928;28;20229;-79
2023/06/12 09:01:40;;;;;;;7.93;5.80;;;;;;;27.39;48.61;94499.34;4951213;28;20201;-78
2023/06/12 09:04:16;;;;;;;10.65;5.63;;;;;;;27.63;48.45;94514.13;4949299;28;20235;-68
2023/06/12 09:06:44;;;;;;;9.20;5.30;;;;;;;27.72;48.16;94515.72;4950950;28;20267;-68
2023/06/12 09:09:10;;;;;;;10.25;5.35;;;;;;;27.64;48.01;94505.31;4952297;28;20217;-69
2023/06/12 09:11:37;;;;;;;7.97;5.85;;;;;;;27.59;48.35;94507.63;4949044;28;20746;-67
2023/06/12 09:14:06;;;;;;;7.07;4.75;;;;;;;27.67;48.52;94506.78;4950357;28;20383;-66
2023/06/12 09:16:33;;;;;;;27.20;16.75;;;;;;;27.81;47.98;94502.63;4951430;28;20213;-70
2023/06/12 09:19:00;;;;;;;22.77;17.50;;;;;;;27.87;48.30;94501.97;4948936;28;20224;-67
2023/06/12 09:21:26;;;;;;;9.20;8.13;;;;;;;27.83;48.46;94495.44;4949072;28;20679;-68
2023/06/12 09:23:55;;;;;;;12.07;7.47;;;;;;;27.67;48.84;94491.94;4948174;28;20208;-68
2023/06/12 09:26:22;;;;;;;6.78;5.50;;;;;;;27.41;48.79;94480.91;4946811;28;20212;-71
2023/06/12 09:28:53;;;;;;;6.45;5.95;;;;;;;27.01;49.86;94489.59;4942648;28;20351;-71
2023/06/12 09:31:21;;;;;;;8.73;5.40;;;;;;;26.70;50.93;94492.06;4951228;28;21074;-65
2023/06/12 09:33:51;;;;;;;8.63;6.32;;;;;;;26.46;51.67;94490.25;4945522;28;20293;-73
2023/06/12 09:36:20;;;;;;;10.25;6.40;;;;;;;26.14;52.41;94491.00;4950046;28;20263;-64
2023/06/12 09:38:48;;;;;;;9.65;6.82;;;;;;;25.80;53.81;94480.63;4947133;28;20243;-69
2023/06/12 09:41:15;;;;;;;9.63;6.68;;;;;;;25.56;55.15;94481.34;4948370;28;20742;-70
2023/06/12 09:43:42;;;;;;;5.63;5.22;;;;;;;25.39;55.46;94482.25;4950414;28;20217;-66
2023/06/12 09:46:08;;;;;;;7.22;6.10;;;;;;;25.23;55.58;94479.56;4947779;28;20217;-64
2023/06/12 09:48:38;;;;;;;16.67;6.43;;;;;;;25.12;56.06;94467.63;4952053;28;21305;-66
2023/06/12 09:51:07;;;;;;;6.88;5.78;;;;;;;25.03;56.10;94479.75;4950815;28;20757;-66
2023/06/12 09:53:37;;;;;;;7.32;6.63;;;;;;;24.90;56.64;94476.72;4950552;28;20601;-67
2023/06/12 09:56:06;;;;;;;13.73;6.47;;;;;;;24.83;58.25;94473.09;4951790;28;20217;-63
2023/06/12 09:58:37;;;;;;;11.00;7.05;;;;;;;24.97;58.76;94479.56;4951289;28;20791;-74
2023/06/12 10:01:05;;;;;;;11.23;6.90;;;;;;;25.15;58.85;94471.72;4950531;28;20233;-63
2023/06/12 10:03:39;;;;;;;15.73;7.93;;;;;;;25.33;58.07;94472.44;4950590;28;20208;-62
2023/06/12 10:06:07;;;;;;;8.10;6.40;;;;;;;25.54;57.45;94472.06;4947283;28;21228;-62
2023/06/12 10:08:34;;;;;;;7.13;6.15;;;;;;;25.66;56.55;94471.66;4949574;28;20872;-64
2023/06/12 10:11:01;;;;;;;18.88;6.90;;;;;;;25.62;56.48;94444.28;4950131;28;20213;-62
2023/06/12 10:13:29;;;;;;;8.20;6.70;;;;;;;25.96;56.61;94474.69;4950005;28;20265;-63
2023/06/12 10:15:56;;;;;;;12.57;5.85;;;;;;;26.10;55.83;94459.25;4948661;28;20209;-63
2023/06/12 10:18:25;;;;;;;11.75;6.50;;;;;;;26.21;54.93;94465.94;4951563;28;20229;-63
2023/06/12 10:20:54;;;;;;;10.07;5.75;;;;;;;25.97;54.42;94471.09;4950116;28;20235;-63
2023/06/12 10:23:22;;;;;;;7.57;5.43;;;;;;;26.08;55.32;94465.59;4949518;28;20266;-67
2023/06/12 10:25:50;;;;;;;8.40;5.30;;;;;;;26.28;54.29;94466.91;4949927;28;20280;-64
2023/06/12 10:28:17;;;;;;;7.18;5.05;;;;;;;26.23;55.37;94463.97;4949137;28;20205;-66
2023/06/12 10:31:17;;;;;;;6.03;5.53;;;;;;;26.32;55.81;94460.44;4951715;28;20213;-64
2023/06/12 10:34:02;;;;;;;6.45;5.35;;;;;;;26.64;54.73;94456.22;4948379;28;20669;-63
2023/06/12 10:36:39;;;;;;;5.53;5.00;;;;;;;26.66;53.11;94454.28;4948781;28;20209;-64
2023/06/12 10:39:15;;;;;;;10.82;5.40;;;;;;;26.58;53.65;94447.25;4949656;28;20784;-63
2023/06/12 10:41:53;;;;;;;8.25;5.47;;;;;;;26.53;55.06;94443.50;4949556;28;20232;-64
2023/06/12 10:44:38;;;;;;;7.85;5.47;;;;;;;26.53;54.40;94446.94;4948174;28;20219;-65
2023/06/12 10:47:05;;;;;;;6.05;5.47;;;;;;;26.54;55.34;94448.56;4950080;28;20235;-63
2023/06/12 10:49:56;;;;;;;8.35;6.03;;;;;;;26.65;54.70;94442.22;4949430;28;20207;-65
2023/06/12 10:52:24;;;;;;;11.38;6.20;;;;;;;26.86;54.52;94442.50;4949333;28;20616;-63
2023/06/12 10:55:16;;;;;;;7.05;6.38;;;;;;;27.04;53.28;94443.16;4948004;28;20695;-63
2023/06/12 10:57:48;;;;;;;7.38;6.25;;;;;;;27.28;52.97;94439.66;4947314;28;20939;-65
2023/06/12 11:00:17;;;;;;;9.02;6.10;;;;;;;27.49;51.72;94439.09;4948301;28;20209;-63
2023/06/12 11:02:46;;;;;;;8.15;6.20;;;;;;;27.59;50.73;94434.53;4948202;28;20209;-63
2023/06/12 11:05:12;;;;;;;10.38;6.63;;;;;;;27.70;49.19;94439.38;4950440;28;20204;-64
2023/06/12 11:07:41;;;;;;;9.95;6.35;;;;;;;27.80;48.80;94433.94;4948604;28;20213;-63
2023/06/12 11:10:11;;;;;;;7.32;5.45;;;;;;;28.17;47.92;94429.81;4947306;28;20205;-66
2023/06/12 11:12:46;;;;;;;8.75;5.50;;;;;;;28.48;47.93;94427.94;4949321;28;20209;-64
2023/06/12 11:15:13;;;;;;;6.55;6.07;;;;;;;28.79;47.44;94418.22;4948198;28;20304;-64
2023/06/12 11:17:39;;;;;;;16.23;6.20;;;;;;;29.06;45.34;94411.59;4949442;28;20204;-64
2023/06/12 11:20:07;;;;;;;13.85;6.90;;;;;;;29.11;44.17;94414.50;4950670;28;20224;-66
2023/06/12 11:22:34;;;;;;;9.18;6.38;;;;;;;29.29;45.61;94411.50;4947313;28;20679;-64
2023/06/12 11:25:03;;;;;;;8.77;6.20;;;;;;;29.44;46.46;94409.75;4947294;28;20654;-64
2023/06/12 11:27:31;;;;;;;8.88;6.00;;;;;;;29.43;44.19;94412.53;4949938;28;20208;-63
2023/06/12 11:29:58;;;;;;;8.15;6.38;;;;;;;29.31;45.71;94403.47;4949218;28;20260;-65
2023/06/12 11:32:24;;;;;;;6.18;5.65;;;;;;;29.43;45.81;94409.91;4950709;28;20664;-63
2023/06/12 11:34:52;;;;;;;8.38;5.78;;;;;;;29.48;45.05;94407.53;4947867;28;20255;-64